sensor_id;sensor_type;location;lat;lon;timestamp;P1;durP1;ratioP1;P2;durP2;ratioP2
71503;SDS011;59323;50.874;7.028;2023-05-19T00:02:08;6.22;;;2.60;;
71503;SDS011;59323;50.874;7.028;2023-05-19T00:04:34;9.65;;;2.63;;
71503;SDS011;59323;50.874;7.028;2023-05-19T00:07:00;6.37;;;2.43;;
71503;SDS011;59323;50.874;7.028;2023-05-19T00:09:27;7.35;;;3.10;;
71503;SDS011;59323;50.874;7.028;2023-05-19T00:11:53;6.53;;;2.93;;
71503;SDS011;59323;50.874;7.028;2023-05-19T00:14:20;6.15;;;2.65;;
71503;SDS011;59323;50.874;7.028;2023-05-19T00:16:46;10.75;;;3.20;;
71503;SDS011;59323;50.874;7.028;2023-05-19T00:19:12;13.13;;;3.10;;
71503;SDS011;59323;50.874;7.028;2023-05-19T00:21:37;11.87;;;3.40;;
71503;SDS011;59323;50.874;7.028;2023-05-19T00:24:03;8.33;;;3.07;;
71503;SDS011;59323;50.874;7.028;2023-05-19T00:26:29;8.93;;;2.60;;
71503;SDS011;59323;50.874;7.028;2023-05-19T00:28:54;7.53;;;3.03;;
71503;SDS011;59323;50.874;7.028;2023-05-19T00:31:20;6.77;;;3.13;;
71503;SDS011;59323;50.874;7.028;2023-05-19T00:33:45;10.38;;;3.20;;
71503;SDS011;59323;50.874;7.028;2023-05-19T00:36:10;8.17;;;2.87;;
71503;SDS011;59323;50.874;7.028;2023-05-19T00:38:36;9.63;;;2.80;;
71503;SDS011;59323;50.874;7.028;2023-05-19T00:41:02;7.93;;;2.78;;
71503;SDS011;59323;50.874;7.028;2023-05-19T00:43:28;9.30;;;3.10;;
71503;SDS011;59323;50.874;7.028;2023-05-19T00:45:54;7.47;;;2.45;;
71503;SDS011;59323;50.874;7.028;2023-05-19T00:48:20;6.63;;;2.70;;
71503;SDS011;59323;50.874;7.028;2023-05-19T00:50:45;9.35;;;2.95;;
71503;SDS011;59323;50.874;7.028;2023-05-19T00:53:12;6.50;;;2.42;;
71503;SDS011;59323;50.874;7.028;2023-05-19T00:55:41;6.07;;;2.50;;
71503;SDS011;59323;50.874;7.028;2023-05-19T00:58:07;8.60;;;2.97;;
71503;SDS011;59323;50.874;7.028;2023-05-19T01:00:34;7.13;;;2.60;;
71503;SDS011;59323;50.874;7.028;2023-05-19T01:03:01;8.87;;;2.83;;
71503;SDS011;59323;50.874;7.028;2023-05-19T01:05:34;7.35;;;2.72;;
71503;SDS011;59323;50.874;7.028;2023-05-19T01:08:03;6.97;;;2.33;;
71503;SDS011;59323;50.874;7.028;2023-05-19T01:10:29;8.52;;;2.55;;
71503;SDS011;59323;50.874;7.028;2023-05-19T01:12:55;8.60;;;3.20;;
71503;SDS011;59323;50.874;7.028;2023-05-19T01:15:20;9.70;;;3.10;;
71503;SDS011;59323;50.874;7.028;2023-05-19T01:17:49;8.30;;;2.90;;
71503;SDS011;59323;50.874;7.028;2023-05-19T01:31:42;9.57;;;3.20;;
71503;SDS011;59323;50.874;7.028;2023-05-19T01:34:11;6.82;;;2.67;;
71503;SDS011;59323;50.874;7.028;2023-05-19T01:36:38;6.82;;;2.50;;
71503;SDS011;59323;50.874;7.028;2023-05-19T01:39:08;12.15;;;3.03;;
71503;SDS011;59323;50.874;7.028;2023-05-19T01:41:34;6.83;;;2.50;;
71503;SDS011;59323;50.874;7.028;2023-05-19T01:44:02;8.50;;;3.10;;
71503;SDS011;59323;50.874;7.028;2023-05-19T01:46:27;8.32;;;2.95;;
71503;SDS011;59323;50.874;7.028;2023-05-19T01:48:53;6.93;;;2.77;;
71503;SDS011;59323;50.874;7.028;2023-05-19T01:51:19;5.78;;;2.70;;
71503;SDS011;59323;50.874;7.028;2023-05-19T01:53:45;9.30;;;3.00;;
71503;SDS011;59323;50.874;7.028;2023-05-19T01:56:11;8.40;;;3.30;;
71503;SDS011;59323;50.874;7.028;2023-05-19T01:58:44;6.85;;;3.05;;
71503;SDS011;59323;50.874;7.028;2023-05-19T02:01:29;8.35;;;2.72;;
71503;SDS011;59323;50.874;7.028;2023-05-19T02:06:52;9.27;;;2.88;;
71503;SDS011;59323;50.874;7.028;2023-05-19T02:14:39;8.82;;;2.88;;
71503;SDS011;59323;50.874;7.028;2023-05-19T02:17:09;9.30;;;3.30;;
71503;SDS011;59323;50.874;7.028;2023-05-19T02:19:39;8.38;;;2.72;;
71503;SDS011;59323;50.874;7.028;2023-05-19T02:22:06;11.80;;;2.97;;
71503;SDS011;59323;50.874;7.028;2023-05-19T02:24:32;10.90;;;2.77;;
71503;SDS011;59323;50.874;7.028;2023-05-19T02:26:57;7.87;;;2.80;;
71503;SDS011;59323;50.874;7.028;2023-05-19T02:29:23;9.43;;;2.70;;
71503;SDS011;59323;50.874;7.028;2023-05-19T02:31:48;7.40;;;2.40;;
71503;SDS011;59323;50.874;7.028;2023-05-19T02:34:14;9.00;;;2.87;;
71503;SDS011;59323;50.874;7.028;2023-05-19T02:36:40;7.20;;;2.70;;
71503;SDS011;59323;50.874;7.028;2023-05-19T02:39:07;7.75;;;2.83;;
71503;SDS011;59323;50.874;7.028;2023-05-19T02:41:36;7.72;;;2.83;;
71503;SDS011;59323;50.874;7.028;2023-05-19T02:44:02;7.60;;;2.80;;
71503;SDS011;59323;50.874;7.028;2023-05-19T02:46:28;8.83;;;3.13;;
71503;SDS011;59323;50.874;7.028;2023-05-19T02:48:53;9.30;;;2.87;;
71503;SDS011;59323;50.874;7.028;2023-05-19T02:51:19;8.00;;;2.60;;
71503;SDS011;59323;50.874;7.028;2023-05-19T02:53:44;6.97;;;2.40;;
71503;SDS011;59323;50.874;7.028;2023-05-19T02:56:09;6.50;;;2.80;;
71503;SDS011;59323;50.874;7.028;2023-05-19T02:58:35;7.27;;;2.90;;
71503;SDS011;59323;50.874;7.028;2023-05-19T03:01:00;11.15;;;2.47;;
71503;SDS011;59323;50.874;7.028;2023-05-19T03:03:26;6.27;;;2.30;;
71503;SDS011;59323;50.874;7.028;2023-05-19T03:05:52;8.35;;;2.30;;
71503;SDS011;59323;50.874;7.028;2023-05-19T03:08:18;7.13;;;2.70;;
71503;SDS011;59323;50.874;7.028;2023-05-19T03:10:44;7.18;;;2.67;;
71503;SDS011;59323;50.874;7.028;2023-05-19T03:13:10;7.40;;;2.60;;
71503;SDS011;59323;50.874;7.028;2023-05-19T03:15:35;8.50;;;2.80;;
71503;SDS011;59323;50.874;7.028;2023-05-19T03:18:00;5.73;;;2.40;;
71503;SDS011;59323;50.874;7.028;2023-05-19T03:20:26;5.93;;;2.57;;
71503;SDS011;59323;50.874;7.028;2023-05-19T03:22:51;8.57;;;2.50;;
71503;SDS011;59323;50.874;7.028;2023-05-19T03:25:17;5.53;;;2.27;;
71503;SDS011;59323;50.874;7.028;2023-05-19T03:27:42;7.47;;;2.60;;
71503;SDS011;59323;50.874;7.028;2023-05-19T03:30:08;7.37;;;2.63;;
71503;SDS011;59323;50.874;7.028;2023-05-19T03:32:33;6.95;;;2.42;;
71503;SDS011;59323;50.874;7.028;2023-05-19T03:35:02;7.47;;;2.40;;
71503;SDS011;59323;50.874;7.028;2023-05-19T03:37:28;9.10;;;2.95;;
71503;SDS011;59323;50.874;7.028;2023-05-19T03:39:54;7.10;;;2.47;;
71503;SDS011;59323;50.874;7.028;2023-05-19T03:42:19;8.50;;;2.60;;
71503;SDS011;59323;50.874;7.028;2023-05-19T03:44:44;6.33;;;2.70;;
71503;SDS011;59323;50.874;7.028;2023-05-19T03:47:10;9.03;;;3.23;;
71503;SDS011;59323;50.874;7.028;2023-05-19T03:49:35;7.73;;;3.07;;
71503;SDS011;59323;50.874;7.028;2023-05-19T03:52:00;7.57;;;3.00;;
71503;SDS011;59323;50.874;7.028;2023-05-19T03:54:27;7.88;;;2.97;;
71503;SDS011;59323;50.874;7.028;2023-05-19T03:56:52;7.90;;;2.60;;
71503;SDS011;59323;50.874;7.028;2023-05-19T03:59:18;9.10;;;3.10;;
71503;SDS011;59323;50.874;7.028;2023-05-19T04:01:43;8.20;;;3.00;;
71503;SDS011;59323;50.874;7.028;2023-05-19T04:04:10;7.70;;;2.72;;
71503;SDS011;59323;50.874;7.028;2023-05-19T04:06:35;8.87;;;2.93;;
71503;SDS011;59323;50.874;7.028;2023-05-19T04:09:01;7.47;;;2.47;;
71503;SDS011;59323;50.874;7.028;2023-05-19T04:11:29;6.83;;;2.67;;
71503;SDS011;59323;50.874;7.028;2023-05-19T04:13:54;7.18;;;2.88;;
71503;SDS011;59323;50.874;7.028;2023-05-19T04:16:19;9.27;;;3.13;;
71503;SDS011;59323;50.874;7.028;2023-05-19T04:18:45;9.53;;;2.40;;
71503;SDS011;59323;50.874;7.028;2023-05-19T04:21:10;10.73;;;3.13;;
71503;SDS011;59323;50.874;7.028;2023-05-19T04:23:36;8.18;;;2.78;;
71503;SDS011;59323;50.874;7.028;2023-05-19T04:26:01;7.20;;;2.83;;
71503;SDS011;59323;50.874;7.028;2023-05-19T04:28:27;10.10;;;3.20;;
71503;SDS011;59323;50.874;7.028;2023-05-19T04:30:53;6.38;;;2.78;;
71503;SDS011;59323;50.874;7.028;2023-05-19T04:33:20;6.57;;;2.53;;
71503;SDS011;59323;50.874;7.028;2023-05-19T04:35:45;8.93;;;2.80;;
71503;SDS011;59323;50.874;7.028;2023-05-19T04:38:11;6.83;;;2.90;;
71503;SDS011;59323;50.874;7.028;2023-05-19T04:40:36;10.95;;;3.40;;
71503;SDS011;59323;50.874;7.028;2023-05-19T04:43:04;7.50;;;2.70;;
71503;SDS011;59323;50.874;7.028;2023-05-19T04:45:31;9.57;;;3.20;;
71503;SDS011;59323;50.874;7.028;2023-05-19T04:47:57;7.75;;;2.63;;
71503;SDS011;59323;50.874;7.028;2023-05-19T04:50:23;7.47;;;2.92;;
71503;SDS011;59323;50.874;7.028;2023-05-19T04:52:48;7.83;;;2.73;;
71503;SDS011;59323;50.874;7.028;2023-05-19T04:55:14;7.40;;;2.53;;
71503;SDS011;59323;50.874;7.028;2023-05-19T04:57:39;6.75;;;2.80;;
71503;SDS011;59323;50.874;7.028;2023-05-19T05:00:05;7.33;;;3.00;;
71503;SDS011;59323;50.874;7.028;2023-05-19T05:02:33;7.10;;;2.67;;
71503;SDS011;59323;50.874;7.028;2023-05-19T05:04:58;6.45;;;2.70;;
71503;SDS011;59323;50.874;7.028;2023-05-19T05:07:24;7.63;;;3.63;;
71503;SDS011;59323;50.874;7.028;2023-05-19T05:09:49;7.97;;;3.57;;
71503;SDS011;59323;50.874;7.028;2023-05-19T05:12:16;7.35;;;3.42;;
71503;SDS011;59323;50.874;7.028;2023-05-19T05:14:42;8.45;;;4.15;;
71503;SDS011;59323;50.874;7.028;2023-05-19T05:17:08;10.30;;;4.30;;
71503;SDS011;59323;50.874;7.028;2023-05-19T05:19:34;8.90;;;4.57;;
71503;SDS011;59323;50.874;7.028;2023-05-19T05:22:00;13.20;;;4.40;;
71503;SDS011;59323;50.874;7.028;2023-05-19T05:24:26;9.25;;;4.10;;
71503;SDS011;59323;50.874;7.028;2023-05-19T05:26:51;12.37;;;4.90;;
71503;SDS011;59323;50.874;7.028;2023-05-19T05:29:18;9.73;;;4.45;;
71503;SDS011;59323;50.874;7.028;2023-05-19T05:31:43;10.60;;;4.47;;
71503;SDS011;59323;50.874;7.028;2023-05-19T05:34:09;11.93;;;4.30;;
71503;SDS011;59323;50.874;7.028;2023-05-19T05:36:34;10.53;;;4.10;;
71503;SDS011;59323;50.874;7.028;2023-05-19T05:39:00;9.17;;;3.70;;
71503;SDS011;59323;50.874;7.028;2023-05-19T05:41:27;10.60;;;4.32;;
71503;SDS011;59323;50.874;7.028;2023-05-19T05:43:58;11.45;;;4.47;;
71503;SDS011;59323;50.874;7.028;2023-05-19T05:46:24;8.67;;;3.73;;
71503;SDS011;59323;50.874;7.028;2023-05-19T05:48:49;10.93;;;3.83;;
71503;SDS011;59323;50.874;7.028;2023-05-19T05:51:15;13.10;;;3.70;;
71503;SDS011;59323;50.874;7.028;2023-05-19T05:53:40;10.77;;;4.07;;
71503;SDS011;59323;50.874;7.028;2023-05-19T05:56:09;11.15;;;4.15;;
71503;SDS011;59323;50.874;7.028;2023-05-19T05:58:35;9.80;;;3.67;;
71503;SDS011;59323;50.874;7.028;2023-05-19T06:01:02;9.50;;;3.75;;
71503;SDS011;59323;50.874;7.028;2023-05-19T06:03:28;8.15;;;3.47;;
71503;SDS011;59323;50.874;7.028;2023-05-19T06:05:55;11.13;;;3.70;;
71503;SDS011;59323;50.874;7.028;2023-05-19T06:08:21;12.63;;;3.50;;
71503;SDS011;59323;50.874;7.028;2023-05-19T06:10:46;9.70;;;4.00;;
71503;SDS011;59323;50.874;7.028;2023-05-19T06:13:12;8.33;;;2.97;;
71503;SDS011;59323;50.874;7.028;2023-05-19T06:15:37;8.80;;;3.08;;
71503;SDS011;59323;50.874;7.028;2023-05-19T06:18:02;7.63;;;2.83;;
71503;SDS011;59323;50.874;7.028;2023-05-19T06:20:28;8.50;;;2.60;;
71503;SDS011;59323;50.874;7.028;2023-05-19T06:22:53;10.00;;;2.50;;
71503;SDS011;59323;50.874;7.028;2023-05-19T06:25:18;6.77;;;2.67;;
71503;SDS011;59323;50.874;7.028;2023-05-19T06:27:44;6.57;;;2.38;;
71503;SDS011;59323;50.874;7.028;2023-05-19T06:30:10;8.77;;;2.50;;
71503;SDS011;59323;50.874;7.028;2023-05-19T06:32:36;9.25;;;2.63;;
71503;SDS011;59323;50.874;7.028;2023-05-19T06:35:01;7.13;;;2.20;;
71503;SDS011;59323;50.874;7.028;2023-05-19T06:37:27;6.97;;;2.10;;
71503;SDS011;59323;50.874;7.028;2023-05-19T06:39:52;7.75;;;2.20;;
71503;SDS011;59323;50.874;7.028;2023-05-19T06:42:18;6.43;;;2.07;;
71503;SDS011;59323;50.874;7.028;2023-05-19T06:44:48;8.90;;;2.35;;
71503;SDS011;59323;50.874;7.028;2023-05-19T06:47:15;7.25;;;2.08;;
71503;SDS011;59323;50.874;7.028;2023-05-19T06:49:41;7.00;;;2.37;;
71503;SDS011;59323;50.874;7.028;2023-05-19T06:52:07;8.98;;;2.25;;
71503;SDS011;59323;50.874;7.028;2023-05-19T06:54:32;10.33;;;2.40;;
71503;SDS011;59323;50.874;7.028;2023-05-19T06:56:57;6.87;;;2.60;;
71503;SDS011;59323;50.874;7.028;2023-05-19T06:59:23;6.90;;;2.00;;
71503;SDS011;59323;50.874;7.028;2023-05-19T07:01:48;6.38;;;2.20;;
71503;SDS011;59323;50.874;7.028;2023-05-19T07:04:13;7.67;;;2.47;;
71503;SDS011;59323;50.874;7.028;2023-05-19T07:06:39;9.37;;;3.07;;
71503;SDS011;59323;50.874;7.028;2023-05-19T07:09:04;7.07;;;2.30;;
71503;SDS011;59323;50.874;7.028;2023-05-19T07:11:29;4.53;;;1.80;;
71503;SDS011;59323;50.874;7.028;2023-05-19T07:13:55;8.17;;;2.13;;
71503;SDS011;59323;50.874;7.028;2023-05-19T07:16:20;7.05;;;1.77;;
71503;SDS011;59323;50.874;7.028;2023-05-19T07:18:46;9.25;;;2.17;;
71503;SDS011;59323;50.874;7.028;2023-05-19T07:21:12;6.93;;;1.67;;
71503;SDS011;59323;50.874;7.028;2023-05-19T07:23:37;6.13;;;1.80;;
71503;SDS011;59323;50.874;7.028;2023-05-19T07:26:02;4.87;;;1.83;;
71503;SDS011;59323;50.874;7.028;2023-05-19T07:28:28;6.33;;;1.80;;
71503;SDS011;59323;50.874;7.028;2023-05-19T07:30:53;6.63;;;1.90;;
71503;SDS011;59323;50.874;7.028;2023-05-19T07:33:18;8.82;;;1.63;;
71503;SDS011;59323;50.874;7.028;2023-05-19T07:35:44;7.43;;;1.80;;
71503;SDS011;59323;50.874;7.028;2023-05-19T07:38:10;7.50;;;2.10;;
71503;SDS011;59323;50.874;7.028;2023-05-19T07:40:36;7.73;;;2.00;;
71503;SDS011;59323;50.874;7.028;2023-05-19T07:43:01;8.33;;;1.70;;
71503;SDS011;59323;50.874;7.028;2023-05-19T07:45:26;6.50;;;1.85;;
71503;SDS011;59323;50.874;7.028;2023-05-19T07:47:52;5.37;;;1.60;;
71503;SDS011;59323;50.874;7.028;2023-05-19T07:50:18;7.43;;;1.80;;
71503;SDS011;59323;50.874;7.028;2023-05-19T07:52:43;5.50;;;1.67;;
71503;SDS011;59323;50.874;7.028;2023-05-19T07:55:09;7.03;;;1.80;;
71503;SDS011;59323;50.874;7.028;2023-05-19T07:57:35;6.93;;;1.85;;
71503;SDS011;59323;50.874;7.028;2023-05-19T08:00:00;7.17;;;1.73;;
71503;SDS011;59323;50.874;7.028;2023-05-19T08:02:26;6.47;;;1.83;;
71503;SDS011;59323;50.874;7.028;2023-05-19T08:04:51;6.77;;;1.83;;
71503;SDS011;59323;50.874;7.028;2023-05-19T08:07:16;6.87;;;2.00;;
71503;SDS011;59323;50.874;7.028;2023-05-19T08:09:42;5.97;;;1.77;;
71503;SDS011;59323;50.874;7.028;2023-05-19T08:12:07;7.72;;;2.45;;
71503;SDS011;59323;50.874;7.028;2023-05-19T08:14:32;6.40;;;1.57;;
71503;SDS011;59323;50.874;7.028;2023-05-19T08:16:58;7.17;;;2.00;;
71503;SDS011;59323;50.874;7.028;2023-05-19T08:19:24;5.53;;;1.52;;
71503;SDS011;59323;50.874;7.028;2023-05-19T08:21:50;8.75;;;2.00;;
71503;SDS011;59323;50.874;7.028;2023-05-19T08:24:16;8.60;;;2.83;;
71503;SDS011;59323;50.874;7.028;2023-05-19T08:26:42;6.73;;;1.80;;
71503;SDS011;59323;50.874;7.028;2023-05-19T08:29:08;8.68;;;2.13;;
71503;SDS011;59323;50.874;7.028;2023-05-19T08:31:33;7.77;;;1.90;;
71503;SDS011;59323;50.874;7.028;2023-05-19T08:33:58;8.93;;;2.13;;
71503;SDS011;59323;50.874;7.028;2023-05-19T08:36:24;8.20;;;2.43;;
71503;SDS011;59323;50.874;7.028;2023-05-19T08:38:49;10.23;;;1.90;;
71503;SDS011;59323;50.874;7.028;2023-05-19T08:41:15;6.77;;;2.40;;
71503;SDS011;59323;50.874;7.028;2023-05-19T08:43:41;5.53;;;2.10;;
71503;SDS011;59323;50.874;7.028;2023-05-19T08:46:06;8.37;;;2.20;;
71503;SDS011;59323;50.874;7.028;2023-05-19T08:48:36;6.80;;;2.13;;
71503;SDS011;59323;50.874;7.028;2023-05-19T08:51:16;5.32;;;1.90;;
71503;SDS011;59323;50.874;7.028;2023-05-19T08:53:49;6.10;;;1.67;;
71503;SDS011;59323;50.874;7.028;2023-05-19T08:56:22;5.82;;;1.85;;
71503;SDS011;59323;50.874;7.028;2023-05-19T08:58:53;9.07;;;2.40;;
71503;SDS011;59323;50.874;7.028;2023-05-19T09:01:23;9.13;;;1.90;;
71503;SDS011;59323;50.874;7.028;2023-05-19T09:03:50;4.93;;;1.58;;
71503;SDS011;59323;50.874;7.028;2023-05-19T09:06:16;6.30;;;1.60;;
71503;SDS011;59323;50.874;7.028;2023-05-19T09:08:41;5.63;;;1.77;;
71503;SDS011;59323;50.874;7.028;2023-05-19T09:11:08;5.50;;;1.67;;
71503;SDS011;59323;50.874;7.028;2023-05-19T09:13:40;5.95;;;2.10;;
71503;SDS011;59323;50.874;7.028;2023-05-19T09:16:06;6.97;;;2.28;;
71503;SDS011;59323;50.874;7.028;2023-05-19T09:18:32;5.18;;;1.60;;
71503;SDS011;59323;50.874;7.028;2023-05-19T09:20:58;7.73;;;1.50;;
71503;SDS011;59323;50.874;7.028;2023-05-19T09:23:30;5.65;;;2.20;;
71503;SDS011;59323;50.874;7.028;2023-05-19T09:26:02;7.00;;;2.08;;
71503;SDS011;59323;50.874;7.028;2023-05-19T09:28:33;11.97;;;1.90;;
71503;SDS011;59323;50.874;7.028;2023-05-19T09:31:25;5.45;;;1.60;;
71503;SDS011;59323;50.874;7.028;2023-05-19T09:33:56;6.90;;;1.98;;
71503;SDS011;59323;50.874;7.028;2023-05-19T09:36:21;6.03;;;1.80;;
71503;SDS011;59323;50.874;7.028;2023-05-19T09:38:46;7.57;;;2.13;;
71503;SDS011;59323;50.874;7.028;2023-05-19T09:41:13;6.80;;;1.80;;
71503;SDS011;59323;50.874;7.028;2023-05-19T09:43:38;7.53;;;1.73;;
71503;SDS011;59323;50.874;7.028;2023-05-19T09:46:04;9.57;;;1.80;;
71503;SDS011;59323;50.874;7.028;2023-05-19T09:48:31;5.43;;;1.85;;
71503;SDS011;59323;50.874;7.028;2023-05-19T09:50:59;7.80;;;2.20;;
71503;SDS011;59323;50.874;7.028;2023-05-19T09:53:25;7.68;;;2.25;;
71503;SDS011;59323;50.874;7.028;2023-05-19T09:55:53;6.03;;;1.80;;
71503;SDS011;59323;50.874;7.028;2023-05-19T09:58:21;5.22;;;1.75;;
71503;SDS011;59323;50.874;7.028;2023-05-19T10:00:48;6.07;;;1.92;;
71503;SDS011;59323;50.874;7.028;2023-05-19T10:03:14;8.45;;;2.40;;
71503;SDS011;59323;50.874;7.028;2023-05-19T10:05:41;4.85;;;1.90;;
71503;SDS011;59323;50.874;7.028;2023-05-19T10:08:07;6.53;;;2.30;;
71503;SDS011;59323;50.874;7.028;2023-05-19T10:10:34;5.40;;;1.90;;
71503;SDS011;59323;50.874;7.028;2023-05-19T11:21:18;5.28;;;1.80;;
71503;SDS011;59323;50.874;7.028;2023-05-19T11:23:44;3.97;;;1.88;;
71503;SDS011;59323;50.874;7.028;2023-05-19T11:26:09;6.40;;;2.13;;
71503;SDS011;59323;50.874;7.028;2023-05-19T11:28:36;6.03;;;1.80;;
71503;SDS011;59323;50.874;7.028;2023-05-19T11:31:03;7.68;;;1.80;;
71503;SDS011;59323;50.874;7.028;2023-05-19T11:33:31;6.68;;;2.03;;
71503;SDS011;59323;50.874;7.028;2023-05-19T11:35:57;7.43;;;1.70;;
71503;SDS011;59323;50.874;7.028;2023-05-19T11:38:23;4.97;;;1.80;;
71503;SDS011;59323;50.874;7.028;2023-05-19T11:40:51;5.72;;;1.70;;
71503;SDS011;59323;50.874;7.028;2023-05-19T11:43:17;5.95;;;1.60;;
71503;SDS011;59323;50.874;7.028;2023-05-19T11:46:12;7.03;;;2.03;;
71503;SDS011;59323;50.874;7.028;2023-05-19T11:48:38;8.18;;;2.03;;
71503;SDS011;59323;50.874;7.028;2023-05-19T11:51:04;5.40;;;2.17;;
71503;SDS011;59323;50.874;7.028;2023-05-19T11:53:30;5.20;;;1.73;;
71503;SDS011;59323;50.874;7.028;2023-05-19T11:56:02;5.57;;;1.90;;
71503;SDS011;59323;50.874;7.028;2023-05-19T11:58:28;5.72;;;1.70;;
71503;SDS011;59323;50.874;7.028;2023-05-19T12:00:54;4.97;;;2.07;;
71503;SDS011;59323;50.874;7.028;2023-05-19T12:03:20;6.30;;;2.03;;
71503;SDS011;59323;50.874;7.028;2023-05-19T12:05:47;6.65;;;1.90;;
71503;SDS011;59323;50.874;7.028;2023-05-19T12:08:12;6.20;;;1.77;;
71503;SDS011;59323;50.874;7.028;2023-05-19T12:10:38;5.63;;;2.27;;
71503;SDS011;59323;50.874;7.028;2023-05-19T12:13:04;5.63;;;1.80;;
71503;SDS011;59323;50.874;7.028;2023-05-19T12:15:33;5.93;;;1.88;;
71503;SDS011;59323;50.874;7.028;2023-05-19T12:17:59;7.63;;;2.10;;
71503;SDS011;59323;50.874;7.028;2023-05-19T12:20:26;5.72;;;2.08;;
71503;SDS011;59323;50.874;7.028;2023-05-19T12:22:56;5.25;;;1.67;;
71503;SDS011;59323;50.874;7.028;2023-05-19T12:25:22;7.05;;;2.20;;
71503;SDS011;59323;50.874;7.028;2023-05-19T12:27:48;7.23;;;2.00;;
71503;SDS011;59323;50.874;7.028;2023-05-19T12:30:14;4.95;;;1.88;;
71503;SDS011;59323;50.874;7.028;2023-05-19T12:32:40;4.97;;;1.93;;
71503;SDS011;59323;50.874;7.028;2023-05-19T12:35:06;5.50;;;1.73;;
71503;SDS011;59323;50.874;7.028;2023-05-19T12:37:32;5.00;;;1.85;;
71503;SDS011;59323;50.874;7.028;2023-05-19T12:39:59;7.68;;;1.90;;
71503;SDS011;59323;50.874;7.028;2023-05-19T12:42:26;7.10;;;1.60;;
71503;SDS011;59323;50.874;7.028;2023-05-19T12:44:55;4.77;;;1.30;;
71503;SDS011;59323;50.874;7.028;2023-05-19T12:47:27;6.45;;;1.80;;
71503;SDS011;59323;50.874;7.028;2023-05-19T12:52:24;7.45;;;1.70;;
71503;SDS011;59323;50.874;7.028;2023-05-19T12:55:00;9.20;;;1.75;;
71503;SDS011;59323;50.874;7.028;2023-05-19T12:57:32;6.60;;;1.53;;
71503;SDS011;59323;50.874;7.028;2023-05-19T13:00:20;8.02;;;1.98;;
71503;SDS011;59323;50.874;7.028;2023-05-19T13:03:02;6.03;;;1.58;;
71503;SDS011;59323;50.874;7.028;2023-05-19T13:05:30;5.82;;;1.67;;
71503;SDS011;59323;50.874;7.028;2023-05-19T13:10:28;6.87;;;1.83;;
71503;SDS011;59323;50.874;7.028;2023-05-19T13:12:55;6.70;;;1.63;;
71503;SDS011;59323;50.874;7.028;2023-05-19T13:15:28;5.55;;;1.83;;
71503;SDS011;59323;50.874;7.028;2023-05-19T13:18:02;6.75;;;1.58;;
71503;SDS011;59323;50.874;7.028;2023-05-19T13:20:30;5.22;;;1.95;;
71503;SDS011;59323;50.874;7.028;2023-05-19T13:22:55;5.87;;;1.90;;
71503;SDS011;59323;50.874;7.028;2023-05-19T13:25:21;10.43;;;2.20;;
71503;SDS011;59323;50.874;7.028;2023-05-19T13:27:47;5.07;;;1.73;;
71503;SDS011;59323;50.874;7.028;2023-05-19T13:30:13;3.83;;;1.40;;
71503;SDS011;59323;50.874;7.028;2023-05-19T13:32:42;5.50;;;1.52;;
71503;SDS011;59323;50.874;7.028;2023-05-19T13:35:08;4.17;;;1.83;;
71503;SDS011;59323;50.874;7.028;2023-05-19T13:37:34;5.80;;;1.77;;
71503;SDS011;59323;50.874;7.028;2023-05-19T13:39:59;6.03;;;1.70;;
71503;SDS011;59323;50.874;7.028;2023-05-19T13:42:25;5.10;;;1.90;;
71503;SDS011;59323;50.874;7.028;2023-05-19T13:44:54;4.63;;;1.77;;
71503;SDS011;59323;50.874;7.028;2023-05-19T13:47:20;6.18;;;1.80;;
71503;SDS011;59323;50.874;7.028;2023-05-19T13:49:49;8.40;;;1.70;;
71503;SDS011;59323;50.874;7.028;2023-05-19T13:52:15;6.22;;;1.73;;
71503;SDS011;59323;50.874;7.028;2023-05-19T13:54:40;4.53;;;1.48;;
71503;SDS011;59323;50.874;7.028;2023-05-19T13:57:06;5.53;;;1.73;;
71503;SDS011;59323;50.874;7.028;2023-05-19T13:59:31;6.40;;;2.07;;
71503;SDS011;59323;50.874;7.028;2023-05-19T14:01:57;6.15;;;1.88;;
71503;SDS011;59323;50.874;7.028;2023-05-19T14:04:22;8.10;;;2.50;;
71503;SDS011;59323;50.874;7.028;2023-05-19T14:06:48;3.87;;;1.80;;
71503;SDS011;59323;50.874;7.028;2023-05-19T14:09:14;7.03;;;1.83;;
71503;SDS011;59323;50.874;7.028;2023-05-19T14:11:40;4.45;;;1.67;;
71503;SDS011;59323;50.874;7.028;2023-05-19T14:14:05;6.67;;;1.37;;
71503;SDS011;59323;50.874;7.028;2023-05-19T14:16:31;5.20;;;1.63;;
71503;SDS011;59323;50.874;7.028;2023-05-19T14:18:56;7.20;;;1.77;;
71503;SDS011;59323;50.874;7.028;2023-05-19T14:21:22;9.90;;;1.73;;
71503;SDS011;59323;50.874;7.028;2023-05-19T14:23:47;6.00;;;1.57;;
71503;SDS011;59323;50.874;7.028;2023-05-19T14:26:13;5.60;;;1.77;;
71503;SDS011;59323;50.874;7.028;2023-05-19T14:28:38;6.03;;;2.07;;
71503;SDS011;59323;50.874;7.028;2023-05-19T14:31:03;3.43;;;1.50;;
71503;SDS011;59323;50.874;7.028;2023-05-19T14:33:30;7.07;;;2.00;;
71503;SDS011;59323;50.874;7.028;2023-05-19T14:35:55;4.43;;;1.37;;
71503;SDS011;59323;50.874;7.028;2023-05-19T14:38:23;7.18;;;1.63;;
71503;SDS011;59323;50.874;7.028;2023-05-19T14:40:49;4.30;;;1.80;;
71503;SDS011;59323;50.874;7.028;2023-05-19T14:43:15;7.38;;;1.73;;
71503;SDS011;59323;50.874;7.028;2023-05-19T14:45:40;4.40;;;2.17;;
71503;SDS011;59323;50.874;7.028;2023-05-19T14:48:06;5.17;;;1.87;;
71503;SDS011;59323;50.874;7.028;2023-05-19T14:50:31;7.53;;;1.90;;
71503;SDS011;59323;50.874;7.028;2023-05-19T14:52:57;5.37;;;1.70;;
71503;SDS011;59323;50.874;7.028;2023-05-19T14:55:22;5.13;;;1.43;;
71503;SDS011;59323;50.874;7.028;2023-05-19T14:57:47;6.23;;;1.77;;
71503;SDS011;59323;50.874;7.028;2023-05-19T15:00:14;6.38;;;1.60;;
71503;SDS011;59323;50.874;7.028;2023-05-19T15:02:39;7.25;;;1.80;;
71503;SDS011;59323;50.874;7.028;2023-05-19T15:05:05;4.67;;;1.40;;
71503;SDS011;59323;50.874;7.028;2023-05-19T15:07:30;8.10;;;1.83;;
71503;SDS011;59323;50.874;7.028;2023-05-19T15:09:56;4.05;;;1.60;;
71503;SDS011;59323;50.874;7.028;2023-05-19T15:12:21;7.00;;;1.47;;
71503;SDS011;59323;50.874;7.028;2023-05-19T15:14:46;4.00;;;1.43;;
71503;SDS011;59323;50.874;7.028;2023-05-19T15:17:12;4.13;;;1.23;;
71503;SDS011;59323;50.874;7.028;2023-05-19T15:19:37;4.17;;;1.40;;
71503;SDS011;59323;50.874;7.028;2023-05-19T15:22:04;5.17;;;1.87;;
71503;SDS011;59323;50.874;7.028;2023-05-19T15:24:30;4.22;;;1.90;;
71503;SDS011;59323;50.874;7.028;2023-05-19T15:26:55;5.73;;;1.50;;
71503;SDS011;59323;50.874;7.028;2023-05-19T15:29:21;6.17;;;1.47;;
71503;SDS011;59323;50.874;7.028;2023-05-19T15:31:49;6.80;;;1.70;;
71503;SDS011;59323;50.874;7.028;2023-05-19T15:34:15;6.90;;;1.60;;
71503;SDS011;59323;50.874;7.028;2023-05-19T15:36:41;5.15;;;1.55;;
71503;SDS011;59323;50.874;7.028;2023-05-19T15:39:07;5.90;;;1.40;;
71503;SDS011;59323;50.874;7.028;2023-05-19T15:41:33;5.47;;;1.67;;
71503;SDS011;59323;50.874;7.028;2023-05-19T15:43:59;5.17;;;1.17;;
71503;SDS011;59323;50.874;7.028;2023-05-19T15:46:26;8.57;;;1.60;;
71503;SDS011;59323;50.874;7.028;2023-05-19T15:48:51;3.22;;;1.30;;
71503;SDS011;59323;50.874;7.028;2023-05-19T15:51:16;3.80;;;1.50;;
71503;SDS011;59323;50.874;7.028;2023-05-19T15:53:42;5.27;;;1.77;;
71503;SDS011;59323;50.874;7.028;2023-05-19T15:56:07;5.13;;;1.80;;
71503;SDS011;59323;50.874;7.028;2023-05-19T15:58:32;4.20;;;1.50;;
71503;SDS011;59323;50.874;7.028;2023-05-19T16:00:58;4.80;;;1.80;;
71503;SDS011;59323;50.874;7.028;2023-05-19T16:03:23;4.55;;;1.30;;
71503;SDS011;59323;50.874;7.028;2023-05-19T16:05:49;3.77;;;1.43;;
71503;SDS011;59323;50.874;7.028;2023-05-19T16:08:15;5.18;;;2.03;;
71503;SDS011;59323;50.874;7.028;2023-05-19T16:10:40;3.97;;;1.20;;
71503;SDS011;59323;50.874;7.028;2023-05-19T16:13:05;5.43;;;1.83;;
71503;SDS011;59323;50.874;7.028;2023-05-19T16:15:31;4.43;;;1.57;;